Terminal Aerodrome Forecast
Issued by NWS Upton, NY

Home | Current Version | Previous Version | Text Only | Print | Product List | Glossary On
Versions: 1 2 3 4 5 6 7 8 9 10 11 12 13 14 15 16 17 18 19 20 21 22 23 24 25 26 27 28 29 30 31 32 33 34
034
FTUS41 KOKX 271156 AAA
TAFJFK
TAF AMD
KJFK 271156Z 2712/2818 VRB03KT 1SM -DZ BR SCT004 OVC020
      TEMPO 2712/2713 1/2SM FG BKN002
     FM271500 16007KT 6SM BR BKN008 OVC015
     FM271700 15010KT P6SM SCT010 BKN025
     FM272100 14011KT P6SM SCT008 BKN015
     FM272300 14009KT 4SM BR BKN007 OVC015
     FM280100 14008KT 1 1/2SM -DZ BR OVC007
     FM280300 15008KT 1SM -DZ BR OVC004
     FM280600 VRB04KT 1/2SM -DZ FG OVC008
     FM281300 27008KT P6SM SCT008 BKN050=

USA.gov is the U.S. government's official web portal to all federal, state and local government web resources and services.